Time;durP1;ratioP1;P1;durP2;ratioP2;P2;SDS_P1;SDS_P2;PMS_P1;PMS_P2;Temp;Humidity;BMP_temperature;BMP_pressure;BME280_temperature;BME280_humidity;BME280_pressure;Samples;Min_cycle;Max_cycle;Signal;HPM_P1;HPM_P2
2023/06/06 00:01:45;;;;;;;11.13;9.88;;;21.30;99.90;;;;;;4916824;29;20110;-93
2023/06/06 00:04:12;;;;;;;13.80;10.20;;;21.30;99.90;;;;;;4900962;29;20375;-94
2023/06/06 00:06:38;;;;;;;13.15;11.15;;;21.20;99.90;;;;;;4919622;29;20397;-91
2023/06/06 00:09:08;;;;;;;12.63;10.27;;;21.20;99.90;;;;;;4904516;29;20036;-92
2023/06/06 00:11:35;;;;;;;12.82;10.95;;;21.20;99.90;;;;;;4904446;29;20031;-92
2023/06/06 00:14:02;;;;;;;16.67;10.57;;;21.20;99.90;;;;;;4904325;29;20035;-92
2023/06/06 00:16:32;;;;;;;14.43;10.38;;;21.20;99.90;;;;;;4904277;29;20059;-92
2023/06/06 00:19:00;;;;;;;13.93;11.27;;;21.20;99.90;;;;;;4904718;29;20429;-92
2023/06/06 00:21:32;;;;;;;14.00;10.07;;;21.10;99.90;;;;;;4906121;29;20028;-92
2023/06/06 00:24:01;;;;;;;17.95;10.27;;;21.10;99.90;;;;;;4908701;29;20046;-94
2023/06/06 00:26:31;;;;;;;12.88;10.52;;;21.20;99.90;;;;;;4908411;29;20027;-92
2023/06/06 00:28:58;;;;;;;13.13;9.85;;;21.20;99.90;;;;;;4907193;29;20054;-92
2023/06/06 00:31:24;;;;;;;14.05;10.80;;;21.20;99.90;;;;;;4904479;29;20052;-93
2023/06/06 00:33:51;;;;;;;16.05;10.77;;;21.20;99.90;;;;;;4907792;29;20473;-94
2023/06/06 00:36:17;;;;;;;17.30;11.88;;;21.20;99.90;;;;;;4907443;29;20428;-94
2023/06/06 00:38:47;;;;;;;16.55;12.15;;;21.10;99.90;;;;;;4907526;29;20102;-92
2023/06/06 00:41:14;;;;;;;16.63;11.13;;;21.10;99.90;;;;;;4907382;29;20032;-93
2023/06/06 00:43:40;;;;;;;15.43;10.52;;;21.20;99.90;;;;;;4907552;29;20102;-91
2023/06/06 00:46:07;;;;;;;14.02;9.93;;;21.20;99.90;;;;;;4907679;29;20430;-92
2023/06/06 00:48:34;;;;;;;13.70;10.85;;;21.10;99.90;;;;;;4907580;29;20060;-91
2023/06/06 00:51:00;;;;;;;18.13;12.02;;;21.20;99.90;;;;;;4907604;29;20492;-93
2023/06/06 00:53:27;;;;;;;17.85;11.48;;;21.10;99.90;;;;;;4907149;29;20388;-92
2023/06/06 00:55:57;;;;;;;14.55;11.55;;;21.10;99.90;;;;;;4907724;29;20054;-92
2023/06/06 00:58:24;;;;;;;14.55;11.45;;;20.90;99.90;;;;;;4907026;29;20039;-91
2023/06/06 01:00:51;;;;;;;19.98;11.13;;;20.90;99.90;;;;;;4907577;29;20031;-93
2023/06/06 01:03:19;;;;;;;15.75;10.35;;;20.90;99.90;;;;;;4907145;29;20035;-94
2023/06/06 01:05:47;;;;;;;14.43;10.98;;;20.80;99.90;;;;;;4906943;29;20160;-91
2023/06/06 01:08:20;;;;;;;16.40;10.75;;;20.80;99.90;;;;;;4907864;29;20028;-92
2023/06/06 01:10:47;;;;;;;14.10;10.82;;;20.80;99.90;;;;;;4907144;29;20036;-92
2023/06/06 01:13:33;;;;;;;15.15;10.68;;;20.80;99.90;;;;;;4906742;29;20036;-92
2023/06/06 01:16:09;;;;;;;19.20;11.68;;;20.80;99.90;;;;;;4907379;29;20039;-92
2023/06/06 01:18:37;;;;;;;17.23;11.13;;;20.80;99.90;;;;;;4906789;29;20045;-91
2023/06/06 01:21:06;;;;;;;16.95;11.80;;;20.80;99.90;;;;;;4907999;29;20095;-93
2023/06/06 01:23:35;;;;;;;17.77;11.50;;;20.70;99.90;;;;;;4906744;29;20489;-93
2023/06/06 01:26:07;;;;;;;14.80;11.43;;;20.70;99.90;;;;;;4906825;29;20042;-92
2023/06/06 01:28:33;;;;;;;18.15;11.40;;;20.70;99.90;;;;;;4906856;29;20027;-93
2023/06/06 01:31:00;;;;;;;14.88;11.02;;;20.60;99.90;;;;;;4906609;29;20028;-92
2023/06/06 01:33:40;;;;;;;18.15;12.10;;;20.60;99.90;;;;;;4906240;29;20081;-92
2023/06/06 01:36:43;;;;;;;21.00;11.65;;;20.50;99.90;;;;;;4907025;29;20039;-91
2023/06/06 01:39:15;;;;;;;18.67;11.38;;;20.40;99.90;;;;;;4906338;29;20050;-92
2023/06/06 01:41:44;;;;;;;22.42;12.48;;;20.40;99.90;;;;;;4906811;29;20469;-92
2023/06/06 01:44:13;;;;;;;18.73;11.57;;;20.30;99.90;;;;;;4907165;29;20031;-93
2023/06/06 01:46:40;;;;;;;19.05;12.48;;;20.30;99.90;;;;;;4906155;29;20028;-91
2023/06/06 01:49:08;;;;;;;18.55;12.77;;;20.30;99.90;;;;;;4906308;29;20087;-92
2023/06/06 01:51:36;;;;;;;19.63;11.73;;;20.30;99.90;;;;;;4906436;29;20038;-92
2023/06/06 01:54:03;;;;;;;14.30;11.10;;;20.40;99.90;;;;;;4906123;29;20032;-93
2023/06/06 01:56:33;;;;;;;22.13;12.07;;;20.40;99.90;;;;;;4906300;29;20035;-91
2023/06/06 01:59:00;;;;;;;17.13;11.68;;;20.30;99.90;;;;;;4906422;29;20040;-91
2023/06/06 02:01:28;;;;;;;18.20;11.45;;;20.40;99.90;;;;;;4906058;29;20059;-93
2023/06/06 02:03:55;;;;;;;17.88;11.30;;;20.40;99.90;;;;;;4906064;29;20039;-91
2023/06/06 02:06:22;;;;;;;17.88;11.65;;;20.40;99.90;;;;;;4906257;29;20054;-94
2023/06/06 02:08:49;;;;;;;19.80;10.68;;;20.40;99.90;;;;;;4906180;29;20040;-92
2023/06/06 02:11:15;;;;;;;16.48;11.02;;;20.40;99.90;;;;;;4905724;29;20032;-92
2023/06/06 02:13:42;;;;;;;13.70;10.88;;;20.50;99.90;;;;;;4906774;29;20028;-94
2023/06/06 02:16:08;;;;;;;18.13;11.05;;;20.50;99.90;;;;;;4906146;29;20063;-91
2023/06/06 02:18:35;;;;;;;15.88;11.20;;;20.50;99.90;;;;;;4906233;29;20129;-94
2023/06/06 02:21:15;;;;;;;17.27;11.30;;;20.60;99.90;;;;;;4907312;29;20028;-93
2023/06/06 02:23:42;;;;;;;16.15;11.13;;;20.50;99.90;;;;;;4905825;29;20028;-92
2023/06/06 02:26:09;;;;;;;21.23;10.77;;;20.60;99.90;;;;;;4905567;29;20158;-91
2023/06/06 02:28:35;;;;;;;18.48;10.82;;;20.70;99.90;;;;;;4906162;29;20039;-91
2023/06/06 02:31:02;;;;;;;18.67;11.40;;;20.70;99.90;;;;;;4906600;29;20058;-92
2023/06/06 02:33:29;;;;;;;16.58;10.85;;;20.70;99.90;;;;;;4905692;29;20067;-92
2023/06/06 02:35:56;;;;;;;16.67;10.10;;;20.70;99.90;;;;;;4905933;29;20028;-93
2023/06/06 02:38:22;;;;;;;16.63;10.70;;;20.70;99.90;;;;;;4905791;29;20485;-93
2023/06/06 02:40:49;;;;;;;14.70;9.75;;;20.60;99.90;;;;;;4905204;29;20034;-93
2023/06/06 02:43:16;;;;;;;14.50;10.85;;;20.60;99.90;;;;;;4905596;29;20053;-91
2023/06/06 02:45:42;;;;;;;16.23;10.88;;;20.60;99.90;;;;;;4904812;29;20034;-94
2023/06/06 02:48:09;;;;;;;15.07;10.52;;;20.70;99.90;;;;;;4905571;29;20032;-94
2023/06/06 02:50:35;;;;;;;15.88;10.45;;;20.60;99.90;;;;;;4905116;29;20050;-94
2023/06/06 02:53:02;;;;;;;15.00;10.50;;;20.60;99.90;;;;;;4905447;29;20385;-94
2023/06/06 02:55:31;;;;;;;14.73;10.18;;;20.60;99.90;;;;;;4905455;29;20023;-92
2023/06/06 02:57:58;;;;;;;13.40;10.30;;;20.70;99.90;;;;;;4904784;29;20066;-94
2023/06/06 03:00:25;;;;;;;17.10;11.13;;;20.70;99.90;;;;;;4905163;29;20039;-93
2023/06/06 03:02:52;;;;;;;14.27;9.82;;;20.70;99.90;;;;;;4905202;29;20036;-92
2023/06/06 03:05:19;;;;;;;15.93;10.40;;;20.70;99.90;;;;;;4904907;29;20023;-92
2023/06/06 03:07:49;;;;;;;13.88;9.75;;;20.70;99.90;;;;;;4902769;29;20032;-93
2023/06/06 03:10:31;;;;;;;20.02;10.05;;;20.70;99.90;;;;;;4905276;29;20043;-92
2023/06/06 03:13:18;;;;;;;15.63;9.45;;;20.70;99.90;;;;;;4908592;29;20110;-91
2023/06/06 03:16:05;;;;;;;;;;;20.80;99.90;;;;;;4907968;29;20031;-93
2023/06/06 03:18:47;;;;;;;;;;;20.70;99.90;;;;;;4906245;29;19923;-91
2023/06/06 03:21:38;;;;;;;17.13;9.77;;;20.60;99.90;;;;;;4920475;29;20321;-93
2023/06/06 03:27:14;;;;;;;13.00;10.30;;;20.50;99.90;;;;;;4842499;29;20049;-92
2023/06/06 03:29:44;;;;;;;15.73;9.82;;;20.50;99.90;;;;;;4827490;29;20472;-92
2023/06/06 03:32:10;;;;;;;16.25;9.80;;;20.50;99.90;;;;;;4826639;29;20108;-93
2023/06/06 03:34:39;;;;;;;19.83;10.60;;;20.50;99.90;;;;;;4826569;29;20038;-91
2023/06/06 03:37:09;;;;;;;21.55;11.52;;;20.40;99.90;;;;;;4826918;29;20034;-91
2023/06/06 03:39:35;;;;;;;18.35;11.38;;;20.40;99.90;;;;;;4826480;29;20054;-91
2023/06/06 03:42:02;;;;;;;19.60;11.85;;;20.40;99.90;;;;;;4826634;29;20109;-91
2023/06/06 03:44:29;;;;;;;16.95;11.07;;;20.50;99.90;;;;;;4827140;29;20046;-91
2023/06/06 03:46:55;;;;;;;15.98;11.23;;;20.50;99.90;;;;;;4826818;29;20516;-94
2023/06/06 03:49:22;;;;;;;17.27;11.57;;;20.50;99.90;;;;;;4826385;29;20111;-92
2023/06/06 03:51:49;;;;;;;18.60;11.43;;;20.60;99.90;;;;;;4826585;29;20071;-91
2023/06/06 03:54:16;;;;;;;19.63;11.57;;;20.60;99.90;;;;;;4843348;29;20040;-92
2023/06/06 03:56:42;;;;;;;16.42;10.80;;;20.70;99.90;;;;;;4895707;29;20521;-90
2023/06/06 03:59:12;;;;;;;14.95;10.25;;;20.70;99.90;;;;;;4908322;29;20127;-92
2023/06/06 04:01:40;;;;;;;16.08;10.52;;;20.80;99.90;;;;;;4924205;29;20028;-92
2023/06/06 04:04:13;;;;;;;21.08;11.05;;;20.70;99.90;;;;;;4908047;29;20056;-92
2023/06/06 04:06:40;;;;;;;19.55;11.13;;;20.60;99.90;;;;;;4924130;29;20396;-93
2023/06/06 04:09:10;;;;;;;23.75;12.25;;;20.60;99.90;;;;;;4908355;29;20031;-94
2023/06/06 04:11:37;;;;;;;15.55;10.43;;;20.60;99.90;;;;;;4908008;29;20032;-92
2023/06/06 04:14:05;;;;;;;15.40;11.43;;;20.70;99.90;;;;;;4908291;29;20063;-93
2023/06/06 04:16:35;;;;;;;15.15;9.70;;;20.60;99.90;;;;;;4923874;29;20032;-92
2023/06/06 04:19:02;;;;;;;15.85;11.50;;;20.70;99.90;;;;;;4908008;29;20047;-91
2023/06/06 04:21:30;;;;;;;16.63;10.23;;;20.70;99.90;;;;;;4907954;29;20023;-92
2023/06/06 04:23:57;;;;;;;18.15;10.10;;;20.80;99.90;;;;;;4907696;29;20035;-91
2023/06/06 04:26:25;;;;;;;16.30;10.38;;;20.90;99.90;;;;;;4924228;29;20028;-93
2023/06/06 04:28:58;;;;;;;20.13;10.30;;;20.90;99.90;;;;;;4908570;29;20024;-91
2023/06/06 04:31:29;;;;;;;15.25;10.00;;;21.00;99.90;;;;;;4923266;29;20076;-93
2023/06/06 04:33:57;;;;;;;16.67;10.85;;;21.00;99.90;;;;;;4907947;29;20393;-94
2023/06/06 04:36:25;;;;;;;18.33;11.80;;;21.00;99.90;;;;;;4908092;29;20031;-94
2023/06/06 04:38:53;;;;;;;18.95;10.85;;;21.00;99.90;;;;;;4908075;29;20032;-92
2023/06/06 04:41:23;;;;;;;18.10;11.50;;;21.00;99.90;;;;;;4907718;29;20031;-92
2023/06/06 04:43:51;;;;;;;19.02;11.23;;;21.10;99.90;;;;;;4907466;29;20024;-91
2023/06/06 04:46:21;;;;;;;20.30;11.27;;;21.10;99.90;;;;;;4907500;29;20110;-94
2023/06/06 04:48:55;;;;;;;16.58;10.35;;;21.10;99.90;;;;;;4907351;29;20036;-91
2023/06/06 04:51:30;;;;;;;20.08;11.52;;;21.10;99.90;;;;;;4907010;29;20083;-93
2023/06/06 04:53:58;;;;;;;18.38;10.32;;;21.10;99.90;;;;;;4907177;29;20027;-92
2023/06/06 04:56:28;;;;;;;17.17;10.07;;;21.20;99.90;;;;;;4907396;29;20118;-91
2023/06/06 04:59:05;;;;;;;16.02;10.48;;;21.30;99.90;;;;;;4907162;29;20051;-94
2023/06/06 05:01:36;;;;;;;14.75;10.95;;;21.40;99.90;;;;;;4907187;29;20035;-92
2023/06/06 05:04:03;;;;;;;14.02;10.68;;;21.50;99.90;;;;;;4906971;29;20074;-92
2023/06/06 05:06:31;;;;;;;16.38;10.60;;;21.60;99.90;;;;;;4907002;29;20024;-91
2023/06/06 05:09:00;;;;;;;13.73;9.60;;;21.60;99.90;;;;;;4906826;29;20047;-93
2023/06/06 05:11:27;;;;;;;14.82;10.23;;;21.50;99.90;;;;;;4907182;29;20051;-92
2023/06/06 05:14:03;;;;;;;13.07;9.55;;;21.60;99.90;;;;;;4907068;29;20051;-92
2023/06/06 05:16:30;;;;;;;14.55;10.38;;;21.60;99.90;;;;;;4907021;29;20111;-92
2023/06/06 05:18:57;;;;;;;12.40;9.63;;;21.70;99.90;;;;;;4907025;29;20035;-92
2023/06/06 05:21:27;;;;;;;11.65;9.88;;;21.80;99.90;;;;;;4907245;29;20035;-93
2023/06/06 05:23:59;;;;;;;12.32;9.13;;;21.80;99.90;;;;;;4907429;29;20031;-93
2023/06/06 05:26:26;;;;;;;11.80;9.38;;;21.90;99.90;;;;;;4907078;29;20106;-93
2023/06/06 05:28:59;;;;;;;15.90;9.35;;;21.90;99.90;;;;;;4906669;29;20547;-92
2023/06/06 05:31:26;;;;;;;10.90;9.55;;;21.90;99.90;;;;;;4909333;29;20032;-92
2023/06/06 05:33:54;;;;;;;11.65;9.45;;;22.00;99.90;;;;;;4906879;29;20028;-94
2023/06/06 05:36:21;;;;;;;13.40;9.30;;;22.10;99.90;;;;;;4906283;29;20059;-91
2023/06/06 05:38:48;;;;;;;12.35;9.18;;;22.10;99.90;;;;;;4906225;29;20453;-93
2023/06/06 05:41:14;;;;;;;14.80;9.60;;;22.00;99.90;;;;;;4906594;29;20446;-91
2023/06/06 05:43:45;;;;;;;11.48;9.23;;;22.20;99.90;;;;;;4906212;29;20031;-91
2023/06/06 05:46:12;;;;;;;9.85;9.00;;;22.30;99.90;;;;;;4906183;29;20123;-90
2023/06/06 05:48:39;;;;;;;10.45;9.45;;;22.30;99.90;;;;;;4921875;29;20087;-94
2023/06/06 05:51:07;;;;;;;10.75;9.65;;;22.30;99.90;;;;;;4906082;29;20063;-89
2023/06/06 05:53:47;;;;;;;11.38;10.25;;;22.40;99.90;;;;;;4906423;29;20024;-95
2023/06/06 05:56:16;;;;;;;11.82;10.77;;;22.60;99.90;;;;;;4906450;29;20512;-92
2023/06/06 05:58:47;;;;;;;12.43;11.30;;;22.80;99.90;;;;;;4906038;29;20044;-94
2023/06/06 06:01:14;;;;;;;12.82;11.50;;;22.80;99.90;;;;;;4921891;29;20475;-91
2023/06/06 06:03:44;;;;;;;12.95;11.85;;;22.70;99.90;;;;;;4905749;29;20032;-93
2023/06/06 06:06:11;;;;;;;13.85;12.45;;;22.50;99.90;;;;;;4888129;29;20032;-93
2023/06/06 06:08:37;;;;;;;13.30;12.20;;;22.50;99.90;;;;;;4887217;29;20076;-90
2023/06/06 06:11:07;;;;;;;13.55;12.45;;;22.50;99.90;;;;;;4887125;29;20032;-93
2023/06/06 06:13:34;;;;;;;14.13;12.90;;;22.60;99.90;;;;;;4887060;29;20056;-93
2023/06/06 06:16:00;;;;;;;13.63;12.63;;;22.70;99.90;;;;;;4887424;29;20039;-93
2023/06/06 06:18:27;;;;;;;14.63;13.40;;;22.80;99.90;;;;;;4893503;29;20024;-92
2023/06/06 06:20:54;;;;;;;14.35;13.32;;;22.90;99.90;;;;;;4905589;29;20060;-93
2023/06/06 06:23:21;;;;;;;15.27;13.90;;;23.00;99.90;;;;;;4905858;29;20031;-92
2023/06/06 06:25:47;;;;;;;15.00;13.95;;;23.00;99.90;;;;;;4921379;29;20031;-93
2023/06/06 06:28:21;;;;;;;16.50;14.35;;;23.00;99.90;;;;;;4905780;29;20023;-91
2023/06/06 06:30:48;;;;;;;;;;;23.20;99.90;;;;;;4905943;29;20047;-91
2023/06/06 06:33:14;;;;;;;15.55;14.30;;;23.20;99.90;;;;;;4905302;29;19997;-93
2023/06/06 06:35:42;;;;;;;16.45;15.30;;;23.30;99.90;;;;;;4921128;29;20035;-93
2023/06/06 06:38:09;;;;;;;17.25;15.75;;;23.40;99.90;;;;;;4905558;29;20031;-92
2023/06/06 06:40:36;;;;;;;17.45;15.95;;;23.70;99.90;;;;;;4921026;29;20027;-94
2023/06/06 06:43:04;;;;;;;17.80;16.20;;;24.00;99.90;;;;;;4905225;29;20028;-92
2023/06/06 06:45:39;;;;;;;18.77;17.48;;;24.30;99.90;;;;;;4906488;29;20038;-91
2023/06/06 06:48:06;;;;;;;18.75;17.23;;;24.50;99.90;;;;;;4905447;29;20114;-93
2023/06/06 06:50:32;;;;;;;20.15;18.55;;;24.70;99.90;;;;;;4906439;29;20052;-92
2023/06/06 06:53:02;;;;;;;19.83;18.08;;;24.70;99.90;;;;;;4905446;29;20052;-91
2023/06/06 06:55:28;;;;;;;20.02;18.52;;;24.70;99.90;;;;;;4905077;29;20028;-93
2023/06/06 06:57:56;;;;;;;21.98;20.38;;;24.70;99.90;;;;;;4904939;29;20028;-96
2023/06/06 07:00:23;;;;;;;22.75;21.00;;;24.80;99.90;;;;;;4904960;29;20040;-92
2023/06/06 07:02:54;;;;;;;23.08;21.05;;;24.70;99.90;;;;;;4905398;29;20046;-91
2023/06/06 07:05:21;;;;;;;19.77;17.98;;;24.60;99.90;;;;;;4920202;29;20032;-91
2023/06/06 07:07:53;;;;;;;18.65;17.02;;;24.60;99.90;;;;;;4904638;29;20038;-92
2023/06/06 07:10:22;;;;;;;18.45;17.13;;;24.60;99.90;;;;;;4920848;29;20027;-95
2023/06/06 07:12:51;;;;;;;18.80;17.33;;;24.70;99.90;;;;;;4905128;29;20023;-92
2023/06/06 07:15:21;;;;;;;19.40;17.80;;;24.70;99.90;;;;;;4920596;29;20083;-93
2023/06/06 07:17:51;;;;;;;17.88;16.58;;;24.90;99.90;;;;;;4904808;29;20031;-93
2023/06/06 07:20:20;;;;;;;19.02;17.48;;;25.10;99.90;;;;;;4920279;29;20039;-93
2023/06/06 07:22:47;;;;;;;18.35;17.15;;;25.10;99.90;;;;;;4904903;29;20452;-92
2023/06/06 07:25:14;;;;;;;18.40;17.08;;;25.30;99.90;;;;;;4904324;29;20086;-93
2023/06/06 07:27:41;;;;;;;18.98;17.45;;;25.40;99.90;;;;;;4904831;29;20060;-92
2023/06/06 07:30:15;;;;;;;18.80;17.50;;;25.40;99.90;;;;;;4904813;29;20032;-90
2023/06/06 07:32:46;;;;;;;19.27;17.83;;;25.60;99.90;;;;;;4920680;29;20027;-93
2023/06/06 07:35:20;;;;;;;19.52;17.90;;;25.70;99.90;;;;;;4920013;29;20039;-93
2023/06/06 07:37:47;;;;;;;;;;;25.70;99.90;;;;;;4920560;29;20023;-92
2023/06/06 07:40:16;;;;;;;20.02;18.52;;;25.60;99.90;;;;;;4904652;29;19914;-95
2023/06/06 07:42:43;;;;;;;20.15;18.73;;;25.60;99.90;;;;;;4920130;29;20034;-93
2023/06/06 07:45:10;;;;;;;21.20;19.55;;;25.90;99.90;;;;;;4904562;29;20043;-93
2023/06/06 07:47:39;;;;;;;21.65;19.73;;;26.30;99.90;;;;;;4920359;29;20035;-92
2023/06/06 07:50:06;;;;;;;22.30;20.45;;;26.30;99.90;;;;;;4904105;29;20068;-93
2023/06/06 07:52:33;;;;;;;21.73;20.33;;;26.40;99.90;;;;;;4920076;29;20032;-94
2023/06/06 07:54:59;;;;;;;22.48;20.90;;;26.60;99.90;;;;;;4904363;29;20106;-93
2023/06/06 07:57:27;;;;;;;23.35;21.75;;;26.80;99.90;;;;;;4904806;29;20060;-93
2023/06/06 07:59:54;;;;;;;23.45;21.45;;;27.10;99.90;;;;;;4919807;29;20126;-93
2023/06/06 08:02:21;;;;;;;22.70;21.05;;;27.50;99.90;;;;;;4905048;29;20465;-92
2023/06/06 08:04:59;;;;;;;24.05;22.40;;;28.10;99.90;;;;;;4904410;29;20083;-92
2023/06/06 08:07:28;;;;;;;24.27;22.58;;;28.90;99.90;;;;;;4919913;29;20027;-92
2023/06/06 08:09:54;;;;;;;24.73;22.92;;;29.90;99.90;;;;;;4904665;29;20028;-94
2023/06/06 08:12:21;;;;;;;24.55;22.90;;;30.10;99.90;;;;;;4919703;29;20442;-93
2023/06/06 08:14:48;;;;;;;24.80;23.27;;;30.50;99.90;;;;;;4904007;29;20220;-93
2023/06/06 08:17:18;;;;;;;26.15;24.15;;;30.90;99.90;;;;;;4920009;29;20170;-92
2023/06/06 08:19:44;;;;;;;26.05;24.40;;;31.30;99.90;;;;;;4904205;29;20126;-93
2023/06/06 08:22:37;;;;;;;26.17;24.17;;;30.60;99.90;;;;;;4907347;29;20031;-93
2023/06/06 08:25:07;;;;;;;26.48;24.65;;;31.10;99.90;;;;;;4913563;29;20044;-93
2023/06/06 08:27:34;;;;;;;25.88;24.02;;;31.60;99.90;;;;;;4904176;29;20024;-93
2023/06/06 08:30:03;;;;;;;26.52;24.67;;;32.00;99.90;;;;;;4904083;29;20392;-93
2023/06/06 08:32:30;;;;;;;26.15;24.38;;;32.10;99.90;;;;;;4903986;29;20440;-93
2023/06/06 08:34:57;;;;;;;25.92;24.15;;;32.70;99.90;;;;;;4903933;29;20083;-93
2023/06/06 08:37:23;;;;;;;26.10;24.55;;;32.70;99.90;;;;;;4904101;29;20028;-92
2023/06/06 08:39:50;;;;;;;27.13;25.30;;;32.00;99.90;;;;;;4903752;29;20138;-93
2023/06/06 08:42:22;;;;;;;26.58;24.88;;;31.40;99.90;;;;;;4905342;29;20388;-92
2023/06/06 08:44:55;;;;;;;27.70;25.45;;;31.70;99.90;;;;;;4907677;29;20039;-95
2023/06/06 08:47:24;;;;;;;26.50;24.30;;;32.00;99.90;;;;;;4907970;29;20031;-92
2023/06/06 08:49:52;;;;;;;26.35;24.55;;;31.90;99.90;;;;;;4907312;29;20051;-92
2023/06/06 08:52:20;;;;;;;25.65;24.13;;;32.30;99.90;;;;;;4907148;29;20035;-93
2023/06/06 08:54:50;;;;;;;26.42;24.73;;;32.70;99.90;;;;;;4907322;29;20405;-94
2023/06/06 08:57:19;;;;;;;26.58;24.98;;;31.80;99.90;;;;;;4904140;29;20021;-93
2023/06/06 08:59:47;;;;;;;25.98;24.17;;;31.90;99.90;;;;;;4904028;29;20044;-93
2023/06/06 09:02:17;;;;;;;26.42;24.52;;;31.80;99.90;;;;;;4888722;29;20107;-91
2023/06/06 09:04:45;;;;;;;25.98;24.48;;;31.80;99.90;;;;;;4892790;29;20023;-94
2023/06/06 09:07:14;;;;;;;25.75;24.05;;;32.00;99.90;;;;;;4906795;29;20037;-95
2023/06/06 09:09:45;;;;;;;26.48;24.67;;;31.80;99.90;;;;;;4922069;29;20028;-93
2023/06/06 09:12:12;;;;;;;27.13;25.23;;;31.90;99.90;;;;;;4907148;29;20032;-92
2023/06/06 09:14:38;;;;;;;26.63;24.92;;;32.10;99.90;;;;;;4907080;29;20504;-94
2023/06/06 09:17:06;;;;;;;25.70;23.67;;;31.90;99.90;;;;;;4923074;29;20126;-94
2023/06/06 09:19:32;;;;;;;26.05;24.13;;;31.90;99.90;;;;;;4906697;29;20040;-93
2023/06/06 09:22:01;;;;;;;26.15;24.30;;;32.30;99.90;;;;;;4922575;29;20036;-94
2023/06/06 09:24:29;;;;;;;26.50;24.60;;;32.70;99.90;;;;;;4906752;29;20377;-94
2023/06/06 09:26:56;;;;;;;25.63;23.98;;;32.90;99.90;;;;;;4922608;29;20039;-94
2023/06/06 09:29:25;;;;;;;26.10;24.40;;;32.90;99.90;;;;;;4907074;29;20504;-94
2023/06/06 09:31:52;;;;;;;26.50;24.60;;;32.20;99.90;;;;;;4922275;29;20122;-94
2023/06/06 09:34:25;;;;;;;26.52;24.80;;;32.20;99.90;;;;;;4906534;29;20044;-93
2023/06/06 09:36:53;;;;;;;26.63;24.58;;;32.20;99.90;;;;;;4907064;29;20039;-94
2023/06/06 09:39:20;;;;;;;26.00;24.13;;;32.10;99.90;;;;;;4907193;29;20040;-93
2023/06/06 09:41:50;;;;;;;25.80;24.08;;;31.80;99.90;;;;;;4906610;29;20031;-92
2023/06/06 09:44:22;;;;;;;26.10;24.20;;;31.80;99.90;;;;;;4922039;29;20529;-92
2023/06/06 09:46:57;;;;;;;25.95;24.23;;;31.70;99.90;;;;;;4903485;29;20039;-93
2023/06/06 09:49:23;;;;;;;25.98;23.83;;;31.70;99.90;;;;;;4902926;29;20040;-92
2023/06/06 09:51:55;;;;;;;26.58;24.30;;;31.50;99.90;;;;;;4903177;29;20033;-93
2023/06/06 09:54:25;;;;;;;26.73;24.73;;;31.30;99.90;;;;;;4905904;29;20038;-91
2023/06/06 09:56:52;;;;;;;26.70;24.65;;;31.10;99.90;;;;;;4905957;29;20551;-91
2023/06/06 09:59:24;;;;;;;25.27;23.50;;;30.90;99.90;;;;;;4921866;29;20047;-91
2023/06/06 10:02:02;;;;;;;26.58;24.40;;;30.90;99.90;;;;;;4921511;29;20126;-90
2023/06/06 10:04:30;;;;;;;25.52;23.70;;;31.00;99.90;;;;;;4921321;29;20051;-91
2023/06/06 10:07:02;;;;;;;26.13;23.83;;;30.80;99.90;;;;;;4905901;29;20030;-91
2023/06/06 10:09:30;;;;;;;25.77;23.67;;;30.80;99.90;;;;;;4921584;29;20032;-89
2023/06/06 10:11:57;;;;;;;25.55;23.75;;;31.00;99.90;;;;;;4905663;29;20054;-90
2023/06/06 10:14:26;;;;;;;25.60;23.80;;;30.70;99.90;;;;;;4921046;29;20028;-89
2023/06/06 10:16:53;;;;;;;26.40;24.55;;;30.70;99.90;;;;;;4905328;29;20051;-91
2023/06/06 10:19:24;;;;;;;25.17;23.13;;;30.50;99.90;;;;;;4905510;29;20118;-90
2023/06/06 10:21:52;;;;;;;25.77;23.60;;;30.40;99.90;;;;;;4905443;29;20047;-92
2023/06/06 10:24:19;;;;;;;24.77;22.90;;;30.60;99.90;;;;;;4921175;29;20079;-90
2023/06/06 10:27:32;;;;;;;24.48;22.67;;;30.30;99.90;;;;;;4905327;29;20461;-89
2023/06/06 10:30:09;;;;;;;24.88;23.08;;;30.30;99.90;;;;;;4899570;29;20044;-91
2023/06/06 10:33:06;;;;;;;24.80;22.50;;;30.60;99.90;;;;;;4886636;29;20040;-90
2023/06/06 10:35:34;;;;;;;25.00;23.30;;;30.40;99.90;;;;;;4903807;29;20027;-94
2023/06/06 10:38:07;;;;;;;24.95;23.05;;;30.10;99.90;;;;;;4891664;29;20020;-91
2023/06/06 10:40:54;;;;;;;25.23;23.40;;;30.10;99.90;;;;;;4905436;29;20043;-92
2023/06/06 10:43:43;;;;;;;26.02;23.60;;;30.30;99.90;;;;;;4920640;29;20050;-92
2023/06/06 10:46:12;;;;;;;24.58;22.83;;;30.60;99.90;;;;;;4901956;29;20064;-93
2023/06/06 10:48:53;;;;;;;25.42;23.38;;;30.70;99.90;;;;;;4886312;29;20031;-93
2023/06/06 10:51:39;;;;;;;24.60;22.85;;;30.60;99.90;;;;;;4885995;29;20498;-92
2023/06/06 10:54:22;;;;;;;23.88;21.95;;;30.50;99.90;;;;;;4892041;29;20040;-93
2023/06/06 10:56:56;;;;;;;24.98;22.95;;;30.80;99.90;;;;;;4905385;29;20075;-95
2023/06/06 10:59:27;;;;;;;24.63;22.63;;;30.80;99.90;;;;;;4920817;29;20043;-95
2023/06/06 11:01:55;;;;;;;25.17;23.08;;;30.80;99.90;;;;;;4920881;29;20023;-95
2023/06/06 11:04:42;;;;;;;23.92;22.20;;;30.70;99.90;;;;;;4904247;29;20038;-92
2023/06/06 11:07:17;;;;;;;24.13;21.83;;;30.60;99.90;;;;;;4904802;29;20059;-92
2023/06/06 11:09:48;;;;;;;23.67;21.88;;;30.70;99.90;;;;;;4920516;29;20083;-93
2023/06/06 11:12:15;;;;;;;24.33;22.08;;;30.90;99.90;;;;;;4905069;29;20024;-93
2023/06/06 11:14:57;;;;;;;24.45;22.30;;;30.70;99.90;;;;;;4905535;29;20509;-93
2023/06/06 11:17:32;;;;;;;23.88;21.92;;;30.70;99.90;;;;;;4920392;29;20059;-93
2023/06/06 11:20:01;;;;;;;24.83;22.65;;;30.70;99.90;;;;;;4904435;29;20040;-92
2023/06/06 11:22:30;;;;;;;24.00;22.30;;;31.00;99.90;;;;;;4904467;29;20035;-93
2023/06/06 11:24:57;;;;;;;23.95;21.90;;;31.10;99.90;;;;;;4904681;29;20032;-92
2023/06/06 11:27:25;;;;;;;23.88;22.05;;;30.70;99.90;;;;;;4920281;29;20107;-93
2023/06/06 11:29:53;;;;;;;23.83;22.15;;;30.30;99.90;;;;;;4904489;29;20024;-92
2023/06/06 11:32:23;;;;;;;24.23;22.23;;;30.70;99.90;;;;;;4920118;29;20508;-93
2023/06/06 11:34:50;;;;;;;23.92;22.23;;;30.40;99.90;;;;;;4904557;29;20067;-94
2023/06/06 11:37:16;;;;;;;25.38;22.75;;;29.70;99.90;;;;;;4919902;29;20036;-94
2023/06/06 11:39:43;;;;;;;25.42;23.08;;;30.00;99.90;;;;;;4904145;29;20063;-94
2023/06/06 11:42:17;;;;;;;29.95;26.17;;;30.10;99.90;;;;;;4919873;29;20031;-95
2023/06/06 11:44:44;;;;;;;26.67;23.95;;;30.20;99.90;;;;;;4920411;29;20486;-91
2023/06/06 11:47:11;;;;;;;25.42;23.10;;;30.30;99.90;;;;;;4904512;29;20055;-93
2023/06/06 11:49:47;;;;;;;25.40;23.50;;;30.40;99.90;;;;;;4904473;29;20058;-94
2023/06/06 11:52:15;;;;;;;24.85;22.83;;;30.50;99.90;;;;;;4904642;29;20533;-93
2023/06/06 11:55:04;;;;;;;24.83;22.77;;;30.70;99.90;;;;;;4904284;29;20035;-92
2023/06/06 11:57:34;;;;;;;25.48;23.30;;;30.60;99.90;;;;;;4920147;29;20065;-95
2023/06/06 12:00:07;;;;;;;24.70;22.60;;;30.70;99.90;;;;;;4920067;29;20441;-94
2023/06/06 12:02:41;;;;;;;26.10;23.75;;;29.90;99.90;;;;;;4901586;29;20044;-94
2023/06/06 12:05:28;;;;;;;25.33;23.33;;;30.10;99.90;;;;;;4885804;29;20063;-92
2023/06/06 12:08:06;;;;;;;25.38;23.00;;;30.60;99.90;;;;;;4902745;29;20028;-93
2023/06/06 12:26:50;;;;;;;25.15;23.25;;;29.80;99.90;;;;;;5034830;23;20058;-94
2023/06/06 12:29:21;;;;;;;25.92;24.00;;;30.40;99.90;;;;;;4848522;29;20092;-94
2023/06/06 12:31:50;;;;;;;25.77;23.67;;;30.50;99.90;;;;;;4834052;29;20479;-93
2023/06/06 12:34:17;;;;;;;24.90;23.20;;;30.70;99.90;;;;;;4847902;29;20044;-91
2023/06/06 12:36:44;;;;;;;25.33;23.30;;;30.50;99.90;;;;;;4844456;29;20025;-93
2023/06/06 12:39:13;;;;;;;25.67;23.45;;;30.50;99.90;;;;;;4829621;29;20038;-93
2023/06/06 12:41:42;;;;;;;25.20;23.50;;;30.70;99.90;;;;;;4829412;29;20026;-91
2023/06/06 12:44:11;;;;;;;26.98;24.40;;;30.90;99.90;;;;;;4814214;29;20049;-93
2023/06/06 12:46:40;;;;;;;26.13;24.15;;;31.00;99.90;;;;;;4844167;29;20045;-92
2023/06/06 12:49:07;;;;;;;26.20;23.95;;;31.00;99.90;;;;;;4847791;29;20090;-92
2023/06/06 12:51:42;;;;;;;25.70;23.67;;;30.80;99.90;;;;;;4847374;29;20033;-94
2023/06/06 12:54:10;;;;;;;25.80;23.90;;;30.50;99.90;;;;;;4847919;29;20508;-92
2023/06/06 12:56:37;;;;;;;25.08;23.23;;;30.40;99.90;;;;;;4847147;29;20034;-93
2023/06/06 12:59:04;;;;;;;25.92;23.77;;;30.20;99.90;;;;;;4860831;29;20074;-92
2023/06/06 13:01:30;;;;;;;25.73;23.40;;;30.30;99.90;;;;;;4888326;29;20454;-91